sensor_id;sensor_type;location;lat;lon;timestamp;pressure;altitude;pressure_sealevel;temperature;humidity
51261;BME280;61705;46.228;24.812;2022-12-07T00:01:09;97350.28;;;3.70;96.80
51261;BME280;61705;46.228;24.812;2022-12-07T00:03:38;97343.34;;;3.68;96.91
51261;BME280;61705;46.228;24.812;2022-12-07T00:06:10;97346.81;;;3.68;97.09
51261;BME280;61705;46.228;24.812;2022-12-07T00:08:37;97347.72;;;3.67;97.06
51261;BME280;61705;46.228;24.812;2022-12-07T00:11:07;97354.66;;;3.70;97.07
51261;BME280;61705;46.228;24.812;2022-12-07T00:13:38;97356.22;;;3.75;96.59
51261;BME280;61705;46.228;24.812;2022-12-07T00:16:07;97347.47;;;3.78;96.60
51261;BME280;61705;46.228;24.812;2022-12-07T00:18:36;97351.00;;;3.75;96.37
51261;BME280;61705;46.228;24.812;2022-12-07T00:21:30;97348.44;;;3.74;96.12
51261;BME280;61705;46.228;24.812;2022-12-07T00:23:59;97350.22;;;3.73;96.03
51261;BME280;61705;46.228;24.812;2022-12-07T00:26:34;97349.34;;;3.73;96.17
51261;BME280;61705;46.228;24.812;2022-12-07T00:29:27;97350.22;;;3.72;96.07
51261;BME280;61705;46.228;24.812;2022-12-07T00:31:50;97340.88;;;3.63;95.85
51261;BME280;61705;46.228;24.812;2022-12-07T00:34:20;97333.28;;;3.52;96.00
51261;BME280;61705;46.228;24.812;2022-12-07T00:36:48;97351.69;;;3.46;96.78
51261;BME280;61705;46.228;24.812;2022-12-07T00:39:14;97345.69;;;3.41;97.13
51261;BME280;61705;46.228;24.812;2022-12-07T00:41:41;97345.63;;;3.46;97.05
51261;BME280;61705;46.228;24.812;2022-12-07T00:44:08;97348.28;;;3.43;97.79
51261;BME280;61705;46.228;24.812;2022-12-07T00:46:35;97347.31;;;3.47;97.76
51261;BME280;61705;46.228;24.812;2022-12-07T00:49:02;97355.28;;;3.42;97.74
51261;BME280;61705;46.228;24.812;2022-12-07T00:51:29;97353.75;;;3.32;98.11
51261;BME280;61705;46.228;24.812;2022-12-07T00:53:55;97347.56;;;3.36;98.29
51261;BME280;61705;46.228;24.812;2022-12-07T00:56:27;97350.91;;;3.41;98.50
51261;BME280;61705;46.228;24.812;2022-12-07T00:58:56;97347.31;;;3.47;98.45
51261;BME280;61705;46.228;24.812;2022-12-07T01:01:24;97347.25;;;3.50;98.43
51261;BME280;61705;46.228;24.812;2022-12-07T01:03:52;97347.25;;;3.50;98.40
51261;BME280;61705;46.228;24.812;2022-12-07T01:06:20;97342.03;;;3.50;98.59
51261;BME280;61705;46.228;24.812;2022-12-07T01:08:48;97341.25;;;3.45;98.46
51261;BME280;61705;46.228;24.812;2022-12-07T01:11:17;97344.06;;;3.37;98.56
51261;BME280;61705;46.228;24.812;2022-12-07T01:13:44;97339.69;;;3.38;98.53
51261;BME280;61705;46.228;24.812;2022-12-07T01:16:13;97328.13;;;3.48;98.25
51261;BME280;61705;46.228;24.812;2022-12-07T01:18:41;97334.34;;;3.44;98.30
51261;BME280;61705;46.228;24.812;2022-12-07T01:23:41;97327.34;;;3.44;98.44
51261;BME280;61705;46.228;24.812;2022-12-07T01:26:11;97315.22;;;3.42;98.47
51261;BME280;61705;46.228;24.812;2022-12-07T01:28:38;97316.19;;;3.38;98.54
51261;BME280;61705;46.228;24.812;2022-12-07T01:31:07;97315.22;;;3.42;98.86
51261;BME280;61705;46.228;24.812;2022-12-07T01:33:36;97315.22;;;3.42;98.76
51261;BME280;61705;46.228;24.812;2022-12-07T01:36:07;97323.94;;;3.41;98.76
51261;BME280;61705;46.228;24.812;2022-12-07T01:38:34;97320.50;;;3.40;98.76
51261;BME280;61705;46.228;24.812;2022-12-07T01:41:02;97320.44;;;3.42;98.82
51261;BME280;61705;46.228;24.812;2022-12-07T01:43:30;97316.84;;;3.47;98.54
51261;BME280;61705;46.228;24.812;2022-12-07T01:45:57;97317.50;;;3.55;98.42
51261;BME280;61705;46.228;24.812;2022-12-07T01:48:28;97320.09;;;3.57;98.25
51261;BME280;61705;46.228;24.812;2022-12-07T01:51:01;97315.72;;;3.58;98.02
51261;BME280;61705;46.228;24.812;2022-12-07T01:53:30;97319.31;;;3.53;98.19
51261;BME280;61705;46.228;24.812;2022-12-07T01:55:58;97316.63;;;3.56;98.02
51261;BME280;61705;46.228;24.812;2022-12-07T01:58:25;97318.22;;;3.62;97.72
51261;BME280;61705;46.228;24.812;2022-12-07T02:00:52;97320.03;;;3.60;97.72
51261;BME280;61705;46.228;24.812;2022-12-07T02:03:29;97320.94;;;3.58;97.74
51261;BME280;61705;46.228;24.812;2022-12-07T02:05:58;97320.88;;;3.61;97.86
51261;BME280;61705;46.228;24.812;2022-12-07T02:08:26;97325.13;;;3.66;97.62
51261;BME280;61705;46.228;24.812;2022-12-07T02:10:54;97315.47;;;3.68;97.79
51261;BME280;61705;46.228;24.812;2022-12-07T02:13:26;97314.50;;;3.72;97.54
51261;BME280;61705;46.228;24.812;2022-12-07T02:18:44;97313.38;;;3.83;97.24
51261;BME280;61705;46.228;24.812;2022-12-07T02:24:19;97315.84;;;3.89;96.93
51261;BME280;61705;46.228;24.812;2022-12-07T02:30:02;97302.06;;;3.82;96.78
51261;BME280;61705;46.228;24.812;2022-12-07T02:32:52;97305.59;;;3.81;97.01
51261;BME280;61705;46.228;24.812;2022-12-07T02:38:17;97299.59;;;3.76;96.90
51261;BME280;61705;46.228;24.812;2022-12-07T02:43:28;97293.56;;;3.74;96.93
51261;BME280;61705;46.228;24.812;2022-12-07T02:46:25;97289.41;;;3.65;97.09
51261;BME280;61705;46.228;24.812;2022-12-07T02:48:54;97293.69;;;3.69;97.22
51261;BME280;61705;46.228;24.812;2022-12-07T02:51:21;97295.34;;;3.73;97.21
51261;BME280;61705;46.228;24.812;2022-12-07T02:53:48;97298.88;;;3.71;97.34
51261;BME280;61705;46.228;24.812;2022-12-07T03:01:28;97292.66;;;3.75;97.77
51261;BME280;61705;46.228;24.812;2022-12-07T03:04:07;97307.44;;;3.76;97.78
51261;BME280;61705;46.228;24.812;2022-12-07T03:06:53;97297.81;;;3.78;97.72
51261;BME280;61705;46.228;24.812;2022-12-07T03:09:32;97301.34;;;3.75;97.88
51261;BME280;61705;46.228;24.812;2022-12-07T03:12:10;97302.22;;;3.76;97.89
51261;BME280;61705;46.228;24.812;2022-12-07T03:14:55;97296.84;;;3.82;97.92
51261;BME280;61705;46.228;24.812;2022-12-07T03:17:29;97308.06;;;3.87;97.76
51261;BME280;61705;46.228;24.812;2022-12-07T03:19:58;97305.38;;;3.90;97.99
51261;BME280;61705;46.228;24.812;2022-12-07T03:22:29;97301.09;;;3.86;98.06
51261;BME280;61705;46.228;24.812;2022-12-07T03:24:59;97300.22;;;3.87;98.12
51261;BME280;61705;46.228;24.812;2022-12-07T03:27:32;97306.16;;;3.92;98.00
51261;BME280;61705;46.228;24.812;2022-12-07T03:30:07;97301.00;;;3.91;98.22
51261;BME280;61705;46.228;24.812;2022-12-07T03:32:45;97298.31;;;3.92;98.37
51261;BME280;61705;46.228;24.812;2022-12-07T03:40:49;97306.88;;;3.99;98.18
51261;BME280;61705;46.228;24.812;2022-12-07T03:43:19;97303.34;;;4.01;98.14
51261;BME280;61705;46.228;24.812;2022-12-07T03:52:12;97294.47;;;4.07;98.07
51261;BME280;61705;46.228;24.812;2022-12-07T03:54:51;97303.28;;;4.03;97.99
51261;BME280;61705;46.228;24.812;2022-12-07T03:57:19;97295.50;;;4.01;97.96
51261;BME280;61705;46.228;24.812;2022-12-07T03:59:46;97303.47;;;3.97;98.08
51261;BME280;61705;46.228;24.812;2022-12-07T04:02:14;97295.56;;;3.98;97.85
51261;BME280;61705;46.228;24.812;2022-12-07T04:04:42;97302.63;;;3.95;97.98
51261;BME280;61705;46.228;24.812;2022-12-07T04:07:12;97304.41;;;3.93;97.94
51261;BME280;61705;46.228;24.812;2022-12-07T04:09:59;97306.03;;;3.98;98.03
51261;BME280;61705;46.228;24.812;2022-12-07T04:12:26;97305.16;;;3.98;98.01
51261;BME280;61705;46.228;24.812;2022-12-07T04:14:53;97301.72;;;3.96;97.87
51261;BME280;61705;46.228;24.812;2022-12-07T04:17:19;97304.19;;;4.02;97.92
51261;BME280;61705;46.228;24.812;2022-12-07T04:19:46;97300.56;;;4.08;97.93
51261;BME280;61705;46.228;24.812;2022-12-07T04:22:13;97301.34;;;4.11;97.89
51261;BME280;61705;46.228;24.812;2022-12-07T04:24:39;97306.66;;;4.08;97.81
51261;BME280;61705;46.228;24.812;2022-12-07T04:27:06;97302.03;;;4.18;97.65
51261;BME280;61705;46.228;24.812;2022-12-07T04:29:33;97301.09;;;4.20;97.48
51261;BME280;61705;46.228;24.812;2022-12-07T04:31:59;97302.00;;;4.19;97.20
51261;BME280;61705;46.228;24.812;2022-12-07T04:34:26;97302.97;;;4.15;97.05
51261;BME280;61705;46.228;24.812;2022-12-07T04:36:54;97302.13;;;4.15;97.08
51261;BME280;61705;46.228;24.812;2022-12-07T04:39:28;97297.69;;;4.17;96.85
51261;BME280;61705;46.228;24.812;2022-12-07T04:41:55;97302.06;;;4.16;96.71
51261;BME280;61705;46.228;24.812;2022-12-07T04:44:23;97301.28;;;4.14;96.83
51261;BME280;61705;46.228;24.812;2022-12-07T04:46:51;97300.38;;;4.15;96.68
51261;BME280;61705;46.228;24.812;2022-12-07T04:49:18;97307.28;;;4.18;96.57
51261;BME280;61705;46.228;24.812;2022-12-07T04:51:45;97316.78;;;4.20;96.42
51261;BME280;61705;46.228;24.812;2022-12-07T04:54:13;97303.97;;;4.11;96.34
51261;BME280;61705;46.228;24.812;2022-12-07T04:56:39;97309.41;;;4.02;96.51
51261;BME280;61705;46.228;24.812;2022-12-07T04:59:06;97306.81;;;4.02;96.67
51261;BME280;61705;46.228;24.812;2022-12-07T05:01:33;97312.78;;;4.07;96.94
51261;BME280;61705;46.228;24.812;2022-12-07T05:04:00;97306.59;;;4.10;96.83
51261;BME280;61705;46.228;24.812;2022-12-07T05:06:27;97308.44;;;4.06;96.71
51261;BME280;61705;46.228;24.812;2022-12-07T05:08:54;97314.50;;;4.07;96.72
51261;BME280;61705;46.228;24.812;2022-12-07T05:11:21;97322.34;;;4.08;96.58
51261;BME280;61705;46.228;24.812;2022-12-07T05:14:14;97319.94;;;3.99;96.48
51261;BME280;61705;46.228;24.812;2022-12-07T05:16:42;97318.25;;;3.96;96.81
51261;BME280;61705;46.228;24.812;2022-12-07T05:19:10;97324.25;;;4.01;96.81
51261;BME280;61705;46.228;24.812;2022-12-07T05:21:37;97319.78;;;4.05;96.64
51261;BME280;61705;46.228;24.812;2022-12-07T05:24:05;97314.56;;;4.05;96.85
51261;BME280;61705;46.228;24.812;2022-12-07T05:26:31;97321.56;;;4.04;96.89
51261;BME280;61705;46.228;24.812;2022-12-07T05:28:58;97316.09;;;4.14;96.64
51261;BME280;61705;46.228;24.812;2022-12-07T05:31:26;97313.59;;;4.09;96.55
51261;BME280;61705;46.228;24.812;2022-12-07T05:33:54;97318.81;;;4.09;96.66
51261;BME280;61705;46.228;24.812;2022-12-07T05:36:21;97324.13;;;4.06;96.39
51261;BME280;61705;46.228;24.812;2022-12-07T05:38:48;97326.72;;;4.08;96.61
51261;BME280;61705;46.228;24.812;2022-12-07T05:41:17;97323.13;;;4.10;96.87
51261;BME280;61705;46.228;24.812;2022-12-07T05:44:03;97324.81;;;4.14;96.48
51261;BME280;61705;46.228;24.812;2022-12-07T05:46:30;97329.06;;;4.18;96.40
51261;BME280;61705;46.228;24.812;2022-12-07T05:48:57;97335.25;;;4.14;96.38
51261;BME280;61705;46.228;24.812;2022-12-07T05:51:24;97329.97;;;4.16;96.18
51261;BME280;61705;46.228;24.812;2022-12-07T05:53:50;97328.19;;;4.18;96.15
51261;BME280;61705;46.228;24.812;2022-12-07T05:56:17;97332.38;;;4.23;96.26
51261;BME280;61705;46.228;24.812;2022-12-07T05:58:44;97338.44;;;4.25;96.12
51261;BME280;61705;46.228;24.812;2022-12-07T06:01:29;97341.13;;;4.24;95.92
51261;BME280;61705;46.228;24.812;2022-12-07T06:03:55;97343.72;;;4.24;95.95
51261;BME280;61705;46.228;24.812;2022-12-07T06:06:22;97342.00;;;4.23;95.97
51261;BME280;61705;46.228;24.812;2022-12-07T06:08:49;97347.28;;;4.21;95.79
51261;BME280;61705;46.228;24.812;2022-12-07T06:11:16;97351.59;;;4.22;95.87
51261;BME280;61705;46.228;24.812;2022-12-07T06:14:01;97340.22;;;4.23;95.41
51261;BME280;61705;46.228;24.812;2022-12-07T06:16:28;97339.28;;;4.27;95.25
51261;BME280;61705;46.228;24.812;2022-12-07T06:18:55;97344.59;;;4.23;94.77
51261;BME280;61705;46.228;24.812;2022-12-07T06:21:21;97339.22;;;4.29;94.98
51261;BME280;61705;46.228;24.812;2022-12-07T06:23:48;97353.31;;;4.23;94.94
51261;BME280;61705;46.228;24.812;2022-12-07T06:26:15;97343.75;;;4.22;94.85
51261;BME280;61705;46.228;24.812;2022-12-07T06:28:42;97347.31;;;4.20;94.83
51261;BME280;61705;46.228;24.812;2022-12-07T06:31:08;97352.44;;;4.24;94.83
51261;BME280;61705;46.228;24.812;2022-12-07T06:33:40;97350.59;;;4.28;94.67
51261;BME280;61705;46.228;24.812;2022-12-07T06:36:07;97341.13;;;4.24;94.21
51261;BME280;61705;46.228;24.812;2022-12-07T06:38:34;97343.06;;;4.16;93.46
51261;BME280;61705;46.228;24.812;2022-12-07T06:41:01;97348.06;;;4.25;93.70
51261;BME280;61705;46.228;24.812;2022-12-07T06:43:30;97346.16;;;4.30;93.40
51261;BME280;61705;46.228;24.812;2022-12-07T06:45:57;97341.78;;;4.31;93.31
51261;BME280;61705;46.228;24.812;2022-12-07T06:48:24;97346.22;;;4.28;93.07
51261;BME280;61705;46.228;24.812;2022-12-07T06:50:51;97353.13;;;4.31;92.71
51261;BME280;61705;46.228;24.812;2022-12-07T06:53:21;97360.03;;;4.34;92.60
51261;BME280;61705;46.228;24.812;2022-12-07T06:55:48;97352.22;;;4.32;92.55
51261;BME280;61705;46.228;24.812;2022-12-07T06:58:15;97352.22;;;4.32;92.58
51261;BME280;61705;46.228;24.812;2022-12-07T07:00:42;97356.44;;;4.38;92.30
51261;BME280;61705;46.228;24.812;2022-12-07T07:03:09;97353.94;;;4.33;92.12
51261;BME280;61705;46.228;24.812;2022-12-07T07:05:36;97352.72;;;4.46;92.41
51261;BME280;61705;46.228;24.812;2022-12-07T07:08:03;97353.56;;;4.48;92.27
51261;BME280;61705;46.228;24.812;2022-12-07T07:10:47;97350.88;;;4.50;91.96
51261;BME280;61705;46.228;24.812;2022-12-07T07:13:14;97356.28;;;4.44;91.77
51261;BME280;61705;46.228;24.812;2022-12-07T07:15:41;97356.81;;;4.57;91.68
51261;BME280;61705;46.228;24.812;2022-12-07T07:18:07;97356.56;;;4.66;91.28
51261;BME280;61705;46.228;24.812;2022-12-07T07:20:34;97353.81;;;4.70;91.03
51261;BME280;61705;46.228;24.812;2022-12-07T07:23:01;97356.34;;;4.73;90.59
51261;BME280;61705;46.228;24.812;2022-12-07T07:25:28;97356.13;;;4.81;90.28
51261;BME280;61705;46.228;24.812;2022-12-07T07:27:54;97357.66;;;4.90;89.75
51261;BME280;61705;46.228;24.812;2022-12-07T07:30:22;97361.66;;;5.02;89.80
51261;BME280;61705;46.228;24.812;2022-12-07T07:32:49;97360.09;;;4.96;88.96
51261;BME280;61705;46.228;24.812;2022-12-07T07:35:16;97355.66;;;4.98;88.90
51261;BME280;61705;46.228;24.812;2022-12-07T07:37:43;97359.22;;;4.95;88.09
51261;BME280;61705;46.228;24.812;2022-12-07T07:40:10;97366.81;;;5.06;88.01
51261;BME280;61705;46.228;24.812;2022-12-07T07:42:37;97358.56;;;5.18;87.74
51261;BME280;61705;46.228;24.812;2022-12-07T07:45:04;97356.94;;;5.14;87.03
51261;BME280;61705;46.228;24.812;2022-12-07T07:47:30;97364.72;;;5.17;86.50
51261;BME280;61705;46.228;24.812;2022-12-07T07:49:57;97355.94;;;5.18;85.57
51261;BME280;61705;46.228;24.812;2022-12-07T07:52:24;97360.97;;;5.26;85.12
51261;BME280;61705;46.228;24.812;2022-12-07T07:54:51;97353.84;;;5.31;84.97
51261;BME280;61705;46.228;24.812;2022-12-07T07:57:17;97358.91;;;5.37;83.41
51261;BME280;61705;46.228;24.812;2022-12-07T07:59:44;97355.50;;;5.34;82.24
51261;BME280;61705;46.228;24.812;2022-12-07T08:02:16;97348.09;;;5.18;81.72
51261;BME280;61705;46.228;24.812;2022-12-07T08:04:43;97351.72;;;5.14;81.48
51261;BME280;61705;46.228;24.812;2022-12-07T08:07:10;97352.63;;;5.13;81.39
51261;BME280;61705;46.228;24.812;2022-12-07T08:09:37;97348.84;;;5.22;81.86
51261;BME280;61705;46.228;24.812;2022-12-07T08:12:05;97355.88;;;5.21;81.88
51261;BME280;61705;46.228;24.812;2022-12-07T08:14:32;97355.03;;;5.19;81.27
51261;BME280;61705;46.228;24.812;2022-12-07T08:17:00;97356.00;;;5.17;81.03
51261;BME280;61705;46.228;24.812;2022-12-07T08:19:26;97354.91;;;5.24;80.22
51261;BME280;61705;46.228;24.812;2022-12-07T08:21:53;97361.69;;;5.31;79.96
51261;BME280;61705;46.228;24.812;2022-12-07T08:24:22;97352.31;;;5.24;79.59
51261;BME280;61705;46.228;24.812;2022-12-07T08:26:49;97362.75;;;5.54;79.54
51261;BME280;61705;46.228;24.812;2022-12-07T08:29:17;97368.66;;;5.60;78.46
51261;BME280;61705;46.228;24.812;2022-12-07T08:31:43;97363.56;;;5.56;77.87
51261;BME280;61705;46.228;24.812;2022-12-07T08:34:11;97361.38;;;5.70;76.35
51261;BME280;61705;46.228;24.812;2022-12-07T08:36:37;97366.25;;;5.54;76.33
51261;BME280;61705;46.228;24.812;2022-12-07T08:39:04;97357.81;;;5.73;76.70
51261;BME280;61705;46.228;24.812;2022-12-07T08:41:51;97360.75;;;5.90;76.76
51261;BME280;61705;46.228;24.812;2022-12-07T08:44:17;97362.72;;;5.83;76.66
51261;BME280;61705;46.228;24.812;2022-12-07T08:46:56;97362.22;;;5.70;76.60
51261;BME280;61705;46.228;24.812;2022-12-07T08:49:45;97372.59;;;5.75;76.58
51261;BME280;61705;46.228;24.812;2022-12-07T08:52:14;97363.88;;;5.75;76.75
51261;BME280;61705;46.228;24.812;2022-12-07T08:54:42;97364.47;;;5.55;77.19
51261;BME280;61705;46.228;24.812;2022-12-07T08:57:10;97371.59;;;5.51;77.43
51261;BME280;61705;46.228;24.812;2022-12-07T08:59:37;97374.91;;;5.56;77.52
51261;BME280;61705;46.228;24.812;2022-12-07T09:02:05;97373.13;;;5.57;77.37
51261;BME280;61705;46.228;24.812;2022-12-07T09:04:32;97365.09;;;5.33;77.56
51261;BME280;61705;46.228;24.812;2022-12-07T09:06:59;97366.78;;;5.36;77.82
51261;BME280;61705;46.228;24.812;2022-12-07T09:09:26;97356.88;;;5.17;77.66
51261;BME280;61705;46.228;24.812;2022-12-07T09:11:52;97351.78;;;5.11;78.24
51261;BME280;61705;46.228;24.812;2022-12-07T09:14:19;97361.75;;;4.98;78.78
51261;BME280;61705;46.228;24.812;2022-12-07T09:16:46;97357.88;;;5.12;78.65
51261;BME280;61705;46.228;24.812;2022-12-07T09:19:12;97365.56;;;5.18;78.84
51261;BME280;61705;46.228;24.812;2022-12-07T09:21:39;97360.28;;;5.19;77.89
51261;BME280;61705;46.228;24.812;2022-12-07T09:24:06;97356.81;;;5.19;78.07
51261;BME280;61705;46.228;24.812;2022-12-07T09:26:33;97354.75;;;5.30;76.92
51261;BME280;61705;46.228;24.812;2022-12-07T09:28:59;97346.00;;;5.30;76.63
51261;BME280;61705;46.228;24.812;2022-12-07T09:31:26;97346.91;;;5.29;76.32
51261;BME280;61705;46.228;24.812;2022-12-07T09:33:58;97338.97;;;5.32;75.79
51261;BME280;61705;46.228;24.812;2022-12-07T09:36:26;97351.06;;;5.36;74.69
51261;BME280;61705;46.228;24.812;2022-12-07T09:38:54;97353.97;;;5.27;74.77
51261;BME280;61705;46.228;24.812;2022-12-07T09:41:22;97342.63;;;5.26;73.49
51261;BME280;61705;46.228;24.812;2022-12-07T09:43:49;97335.75;;;5.22;73.68
51261;BME280;61705;46.228;24.812;2022-12-07T09:46:17;97336.69;;;5.19;73.63
51261;BME280;61705;46.228;24.812;2022-12-07T09:48:47;97330.34;;;5.28;73.35
51261;BME280;61705;46.228;24.812;2022-12-07T09:53:49;97326.22;;;5.19;72.05
51261;BME280;61705;46.228;24.812;2022-12-07T09:56:19;97317.94;;;5.33;71.90
51261;BME280;61705;46.228;24.812;2022-12-07T09:58:46;97315.69;;;5.51;71.94
51261;BME280;61705;46.228;24.812;2022-12-07T10:01:16;97320.78;;;5.55;71.32
51261;BME280;61705;46.228;24.812;2022-12-07T10:06:16;97316.59;;;5.50;71.44
51261;BME280;61705;46.228;24.812;2022-12-07T10:08:43;97317.31;;;5.55;72.38
51261;BME280;61705;46.228;24.812;2022-12-07T10:11:10;97322.59;;;5.53;72.36
51261;BME280;61705;46.228;24.812;2022-12-07T10:13:46;97326.94;;;5.54;72.29
51261;BME280;61705;46.228;24.812;2022-12-07T10:18:51;97335.38;;;5.06;72.54
51261;BME280;61705;46.228;24.812;2022-12-07T10:21:21;97333.31;;;5.16;72.40
51261;BME280;61705;46.228;24.812;2022-12-07T10:24:00;97332.88;;;5.02;71.93
51261;BME280;61705;46.228;24.812;2022-12-07T10:26:34;97328.19;;;5.13;72.81
51261;BME280;61705;46.228;24.812;2022-12-07T10:31:39;97331.19;;;4.99;72.60
51261;BME280;61705;46.228;24.812;2022-12-07T10:34:21;97313.72;;;4.70;72.02
51261;BME280;61705;46.228;24.812;2022-12-07T10:36:51;97309.47;;;4.66;72.81
51261;BME280;61705;46.228;24.812;2022-12-07T10:39:21;97305.84;;;4.70;72.90
51261;BME280;61705;46.228;24.812;2022-12-07T10:41:59;97312.00;;;4.69;72.48
51261;BME280;61705;46.228;24.812;2022-12-07T10:44:34;97314.47;;;4.73;72.25
51261;BME280;61705;46.228;24.812;2022-12-07T10:52:56;97312.66;;;5.07;71.60
51261;BME280;61705;46.228;24.812;2022-12-07T11:00:43;97311.53;;;5.43;71.16
51261;BME280;61705;46.228;24.812;2022-12-07T11:03:48;97313.78;;;5.56;70.87
51261;BME280;61705;46.228;24.812;2022-12-07T11:06:45;97317.53;;;5.75;70.54
51261;BME280;61705;46.228;24.812;2022-12-07T11:09:26;97311.38;;;5.76;70.25
51261;BME280;61705;46.228;24.812;2022-12-07T11:18:27;97295.47;;;5.82;68.95
51261;BME280;61705;46.228;24.812;2022-12-07T11:21:07;97283.50;;;5.74;69.12
51261;BME280;61705;46.228;24.812;2022-12-07T11:24:15;97284.41;;;5.73;69.32
51261;BME280;61705;46.228;24.812;2022-12-07T11:30:14;97275.31;;;5.56;69.47
51261;BME280;61705;46.228;24.812;2022-12-07T11:36:07;97270.84;;;5.32;69.52
51261;BME280;61705;46.228;24.812;2022-12-07T11:38:43;97275.16;;;5.34;70.37
51261;BME280;61705;46.228;24.812;2022-12-07T11:41:22;97273.63;;;5.27;70.23
51261;BME280;61705;46.228;24.812;2022-12-07T11:44:11;97271.63;;;5.35;70.82
51261;BME280;61705;46.228;24.812;2022-12-07T11:49:43;97260.03;;;5.42;70.82
51261;BME280;61705;46.228;24.812;2022-12-07T11:52:25;97262.53;;;5.47;70.81
51261;BME280;61705;46.228;24.812;2022-12-07T11:54:54;97267.97;;;5.41;70.72
51261;BME280;61705;46.228;24.812;2022-12-07T11:57:28;97265.00;;;5.52;70.68
51261;BME280;61705;46.228;24.812;2022-12-07T12:00:04;97263.03;;;5.58;69.61
51261;BME280;61705;46.228;24.812;2022-12-07T12:02:41;97256.41;;;5.73;69.93
51261;BME280;61705;46.228;24.812;2022-12-07T12:05:24;97251.25;;;5.72;68.39
51261;BME280;61705;46.228;24.812;2022-12-07T12:08:15;97249.38;;;5.75;69.36
51261;BME280;61705;46.228;24.812;2022-12-07T12:17:07;97246.00;;;5.98;68.25
51261;BME280;61705;46.228;24.812;2022-12-07T12:22:35;97250.44;;;5.96;69.53
51261;BME280;61705;46.228;24.812;2022-12-07T12:25:07;97241.72;;;5.96;69.54
51261;BME280;61705;46.228;24.812;2022-12-07T12:27:40;97246.13;;;5.95;69.76
51261;BME280;61705;46.228;24.812;2022-12-07T12:30:43;97253.00;;;5.98;69.12
51261;BME280;61705;46.228;24.812;2022-12-07T12:33:19;97254.19;;;5.87;69.55
51261;BME280;61705;46.228;24.812;2022-12-07T12:53:24;97245.25;;;5.68;69.56
51261;BME280;61705;46.228;24.812;2022-12-07T12:56:23;97230.31;;;5.70;70.37
51261;BME280;61705;46.228;24.812;2022-12-07T13:01:51;97237.41;;;5.66;70.33
51261;BME280;61705;46.228;24.812;2022-12-07T13:04:27;97239.53;;;5.55;70.64
51261;BME280;61705;46.228;24.812;2022-12-07T13:06:55;97240.56;;;5.51;70.97
51261;BME280;61705;46.228;24.812;2022-12-07T13:09:28;97244.94;;;5.51;71.15
51261;BME280;61705;46.228;24.812;2022-12-07T13:12:12;97247.00;;;5.41;71.36
51261;BME280;61705;46.228;24.812;2022-12-07T13:14:41;97247.94;;;5.38;71.62
51261;BME280;61705;46.228;24.812;2022-12-07T13:20:55;97246.25;;;5.37;71.86
51261;BME280;61705;46.228;24.812;2022-12-07T13:23:23;97252.66;;;5.27;71.41
51261;BME280;61705;46.228;24.812;2022-12-07T13:26:13;97247.22;;;5.33;72.23
51261;BME280;61705;46.228;24.812;2022-12-07T13:28:52;97251.00;;;5.25;71.92
51261;BME280;61705;46.228;24.812;2022-12-07T13:31:37;97256.94;;;5.30;71.87
51261;BME280;61705;46.228;24.812;2022-12-07T13:36:54;97252.44;;;5.33;72.15
51261;BME280;61705;46.228;24.812;2022-12-07T13:39:23;97251.56;;;5.34;71.87
51261;BME280;61705;46.228;24.812;2022-12-07T13:41:58;97253.53;;;5.28;72.08
51261;BME280;61705;46.228;24.812;2022-12-07T13:44:27;97252.66;;;5.27;72.22
51261;BME280;61705;46.228;24.812;2022-12-07T13:47:17;97254.53;;;5.23;71.88
51261;BME280;61705;46.228;24.812;2022-12-07T13:49:48;97257.09;;;5.25;71.84
51261;BME280;61705;46.228;24.812;2022-12-07T13:52:27;97255.50;;;5.19;71.87
51261;BME280;61705;46.228;24.812;2022-12-07T13:54:56;97249.13;;;5.28;71.83
51261;BME280;61705;46.228;24.812;2022-12-07T13:57:25;97243.22;;;5.21;72.16
51261;BME280;61705;46.228;24.812;2022-12-07T13:59:52;97241.53;;;5.20;72.28
51261;BME280;61705;46.228;24.812;2022-12-07T14:02:27;97251.38;;;5.12;72.39
51261;BME280;61705;46.228;24.812;2022-12-07T14:05:12;97249.66;;;5.11;72.71
51261;BME280;61705;46.228;24.812;2022-12-07T14:12:55;97237.84;;;4.98;72.84
51261;BME280;61705;46.228;24.812;2022-12-07T14:15:32;97239.66;;;4.96;73.45
51261;BME280;61705;46.228;24.812;2022-12-07T14:18:01;97242.41;;;4.91;73.68
51261;BME280;61705;46.228;24.812;2022-12-07T14:20:40;97244.22;;;4.89;73.81
51261;BME280;61705;46.228;24.812;2022-12-07T14:23:24;97238.09;;;4.89;73.89
51261;BME280;61705;46.228;24.812;2022-12-07T14:25:53;97241.94;;;4.79;74.34
51261;BME280;61705;46.228;24.812;2022-12-07T14:28:29;97235.03;;;4.74;74.62
51261;BME280;61705;46.228;24.812;2022-12-07T14:30:57;97245.66;;;4.70;74.73
51261;BME280;61705;46.228;24.812;2022-12-07T14:33:25;97243.09;;;4.68;74.97
51261;BME280;61705;46.228;24.812;2022-12-07T14:35:52;97245.88;;;4.62;75.08
51261;BME280;61705;46.228;24.812;2022-12-07T14:38:25;97248.50;;;4.62;75.42
51261;BME280;61705;46.228;24.812;2022-12-07T14:40:53;97248.50;;;4.62;75.53
51261;BME280;61705;46.228;24.812;2022-12-07T14:43:21;97245.13;;;4.59;75.58
51261;BME280;61705;46.228;24.812;2022-12-07T14:45:47;97243.31;;;4.61;76.05
51261;BME280;61705;46.228;24.812;2022-12-07T14:48:15;97248.59;;;4.59;76.32
51261;BME280;61705;46.228;24.812;2022-12-07T14:51:02;97252.06;;;4.60;76.51
51261;BME280;61705;46.228;24.812;2022-12-07T14:53:52;97247.69;;;4.60;76.75
51261;BME280;61705;46.228;24.812;2022-12-07T14:56:23;97246.00;;;4.58;77.00
51261;BME280;61705;46.228;24.812;2022-12-07T14:58:51;97245.16;;;4.57;77.31
51261;BME280;61705;46.228;24.812;2022-12-07T15:01:17;97245.16;;;4.57;77.36
51261;BME280;61705;46.228;24.812;2022-12-07T15:03:44;97239.97;;;4.56;77.07
51261;BME280;61705;46.228;24.812;2022-12-07T15:06:14;97238.22;;;4.55;77.53
51261;BME280;61705;46.228;24.812;2022-12-07T15:08:41;97246.97;;;4.55;77.47
51261;BME280;61705;46.228;24.812;2022-12-07T15:11:15;97249.63;;;4.54;77.68
51261;BME280;61705;46.228;24.812;2022-12-07T15:13:42;97250.53;;;4.53;77.67